Time,TemperatureF,DewpointF,PressureIn,WindDirection,WindDirectionDegrees,WindSpeedMPH,WindSpeedGustMPH,Humidity,HourlyPrecipIn,Conditions,Clouds,dailyrainin,SoftwareType,DateUTC
2013-04-08 00:13:00,55.2,46.0,30.03,SSW,192,2.0,3.0,70,0.00,,,0.00,weatherlink.com 1.10,2013-04-08 04:13:00,
2013-04-08 00:28:00,56.4,45.0,30.03,South,171,0.0,4.0,67,0.00,,,0.00,weatherlink.com 1.10,2013-04-08 04:28:00,
2013-04-08 00:43:00,56.7,45.0,30.03,South,184,0.0,4.0,66,0.00,,,0.00,weatherlink.com 1.10,2013-04-08 04:43:00,
2013-04-08 00:58:00,56.4,45.0,30.03,South,183,0.0,4.0,67,0.00,,,0.00,weatherlink.com 1.10,2013-04-08 04:58:00,
2013-04-08 01:13:00,56.1,46.0,30.03,SSE,153,0.0,4.0,68,0.00,,,0.00,weatherlink.com 1.10,2013-04-08 05:13:00,
2013-04-08 01:28:00,55.8,45.0,30.03,South,180,0.0,2.0,68,0.00,,,0.00,weatherlink.com 1.10,2013-04-08 05:28:00,
2013-04-08 01:43:00,55.7,46.0,30.03,SE,130,1.0,1.0,69,0.00,,,0.00,weatherlink.com 1.10,2013-04-08 05:43:00,
2013-04-08 01:58:00,55.7,45.0,30.03,SE,131,1.0,1.0,68,0.00,,,0.00,weatherlink.com 1.10,2013-04-08 05:58:00,
2013-04-08 02:13:00,55.7,45.0,30.02,SE,131,0.0,2.0,68,0.00,,,0.00,weatherlink.com 1.10,2013-04-08 06:13:00,
2013-04-08 02:28:00,55.6,45.0,30.02,SE,131,0.0,1.0,68,0.00,,,0.00,weatherlink.com 1.10,2013-04-08 06:28:00,
2013-04-08 02:43:00,55.1,45.0,30.02,SE,131,0.0,1.0,69,0.00,,,0.00,weatherlink.com 1.10,2013-04-08 06:43:00,
2013-04-08 02:58:00,54.6,45.0,30.02,SE,131,0.0,2.0,71,0.00,,,0.00,weatherlink.com 1.10,2013-04-08 06:58:00,
2013-04-08 03:13:00,54.0,45.0,30.02,SE,131,0.0,1.0,71,0.00,,,0.00,weatherlink.com 1.10,2013-04-08 07:13:00,
2013-04-08 03:28:00,53.7,45.0,30.02,SE,131,0.0,1.0,72,0.00,,,0.00,weatherlink.com 1.10,2013-04-08 07:28:00,
2013-04-08 03:43:00,53.5,45.0,30.02,SE,131,0.0,0.0,73,0.00,,,0.00,weatherlink.com 1.10,2013-04-08 07:43:00,
2013-04-08 03:58:00,53.2,45.0,30.02,SE,131,0.0,0.0,73,0.00,,,0.00,weatherlink.com 1.10,2013-04-08 07:58:00,
2013-04-08 04:13:00,53.3,45.0,30.02,SE,131,0.0,2.0,73,0.00,,,0.00,weatherlink.com 1.10,2013-04-08 08:13:00,
2013-04-08 04:28:00,53.3,45.0,30.02,SSE,165,0.0,2.0,73,0.00,,,0.00,weatherlink.com 1.10,2013-04-08 08:28:00,
2013-04-08 04:43:00,53.1,45.0,30.02,SSE,165,0.0,1.0,74,0.00,,,0.00,weatherlink.com 1.10,2013-04-08 08:43:00,
2013-04-08 04:58:00,53.0,45.0,30.02,SSE,165,0.0,0.0,74,0.00,,,0.00,weatherlink.com 1.10,2013-04-08 08:58:00,
2013-04-08 05:13:00,52.8,45.0,30.02,SSE,167,0.0,2.0,75,0.00,,,0.00,weatherlink.com 1.10,2013-04-08 09:13:00,
2013-04-08 05:28:00,52.7,45.0,30.02,SSE,167,0.0,0.0,74,0.00,,,0.00,weatherlink.com 1.10,2013-04-08 09:28:00,
2013-04-08 05:43:00,52.8,45.0,30.02,South,175,1.0,3.0,74,0.00,,,0.00,weatherlink.com 1.10,2013-04-08 09:43:00,
2013-04-08 05:58:00,53.0,45.0,30.03,SSE,167,0.0,4.0,74,0.00,,,0.00,weatherlink.com 1.10,2013-04-08 09:58:00,
2013-04-08 06:59:00,52.4,45.0,30.05,South,170,0.0,0.0,75,0.00,,,0.00,weatherlink.com 1.10,2013-04-08 10:59:00,
2013-04-08 07:29:00,52.5,45.0,30.07,South,170,0.0,0.0,76,0.00,,,0.00,weatherlink.com 1.10,2013-04-08 11:29:00,
2013-04-08 07:44:00,53.2,46.0,30.07,South,170,1.0,1.0,76,0.00,,,0.00,weatherlink.com 1.10,2013-04-08 11:44:00,
2013-04-08 07:59:00,54.3,46.0,30.07,South,170,0.0,3.0,74,0.00,,,0.00,weatherlink.com 1.10,2013-04-08 11:59:00,
2013-04-08 08:14:00,55.5,46.0,30.07,South,176,0.0,3.0,71,0.00,,,0.00,weatherlink.com 1.10,2013-04-08 12:14:00,
2013-04-08 08:29:00,56.4,47.0,30.07,SSE,160,0.0,2.0,70,0.00,,,0.00,weatherlink.com 1.10,2013-04-08 12:29:00,
2013-04-08 08:44:00,57.0,47.0,30.07,SSE,162,0.0,3.0,69,0.00,,,0.00,weatherlink.com 1.10,2013-04-08 12:44:00,
2013-04-08 09:14:00,58.6,48.0,30.07,South,185,0.0,3.0,67,0.00,,,0.00,weatherlink.com 1.10,2013-04-08 13:14:00,
2013-04-08 09:29:00,59.6,47.0,30.08,SSW,196,1.0,3.0,63,0.00,,,0.00,weatherlink.com 1.10,2013-04-08 13:29:00,
2013-04-08 10:14:00,63.5,48.0,30.08,ESE,107,1.0,2.0,57,0.00,,,0.00,weatherlink.com 1.10,2013-04-08 14:14:00,
2013-04-08 10:29:00,63.5,47.0,30.08,East,94,1.0,3.0,56,0.00,,,0.00,weatherlink.com 1.10,2013-04-08 14:29:00,
2013-04-08 10:44:00,64.5,48.0,30.08,East,88,1.0,3.0,56,0.00,,,0.00,weatherlink.com 1.10,2013-04-08 14:44:00,
2013-04-08 10:59:00,64.6,48.0,30.08,East,94,1.0,3.0,55,0.00,,,0.00,weatherlink.com 1.10,2013-04-08 14:59:00,
2013-04-08 11:14:00,64.3,49.0,30.08,East,101,1.0,5.0,57,0.00,,,0.00,weatherlink.com 1.10,2013-04-08 15:14:00,
2013-04-08 11:29:00,65.0,49.0,30.09,East,89,1.0,3.0,56,0.00,,,0.00,weatherlink.com 1.10,2013-04-08 15:29:00,
2013-04-08 11:44:00,66.4,49.0,30.08,East,96,1.0,3.0,53,0.00,,,0.00,weatherlink.com 1.10,2013-04-08 15:44:00,
2013-04-08 11:59:00,67.1,48.0,30.08,SE,142,0.0,3.0,51,0.00,,,0.00,weatherlink.com 1.10,2013-04-08 15:59:00,
2013-04-08 12:14:00,67.4,48.0,30.07,ESE,104,1.0,3.0,51,0.00,,,0.00,weatherlink.com 1.10,2013-04-08 16:14:00,
2013-04-08 12:29:00,68.1,49.0,30.07,East,99,0.0,3.0,51,0.00,,,0.00,weatherlink.com 1.10,2013-04-08 16:29:00,
2013-04-08 12:44:00,68.7,50.0,30.06,ESE,103,0.0,3.0,52,0.00,,,0.00,weatherlink.com 1.10,2013-04-08 16:44:00,
2013-04-08 12:59:00,68.9,49.0,30.06,East,87,1.0,3.0,50,0.00,,,0.00,weatherlink.com 1.10,2013-04-08 16:59:00,
2013-04-08 13:14:00,68.7,50.0,30.06,ESE,118,0.0,3.0,51,0.00,,,0.00,weatherlink.com 1.10,2013-04-08 17:14:00,
2013-04-08 13:29:00,69.2,49.0,30.05,East,98,2.0,2.0,49,0.00,,,0.00,weatherlink.com 1.10,2013-04-08 17:29:00,
2013-04-08 13:44:00,70.3,50.0,30.04,SE,146,0.0,4.0,49,0.00,,,0.00,weatherlink.com 1.10,2013-04-08 17:44:00,
2013-04-08 13:59:00,71.3,49.0,30.04,East,85,2.0,3.0,46,0.00,,,0.00,weatherlink.com 1.10,2013-04-08 17:59:00,
2013-04-08 14:14:00,72.1,50.0,30.03,ESE,102,2.0,5.0,46,0.00,,,0.00,weatherlink.com 1.10,2013-04-08 18:14:00,
2013-04-08 14:29:00,72.1,50.0,30.02,East,98,1.0,3.0,46,0.00,,,0.00,weatherlink.com 1.10,2013-04-08 18:29:00,
2013-04-08 14:45:00,73.0,50.0,30.02,East,92,2.0,3.0,44,0.00,,,0.00,weatherlink.com 1.10,2013-04-08 18:45:00,
2013-04-08 15:00:00,74.0,51.0,30.01,East,98,0.0,5.0,45,0.00,,,0.00,weatherlink.com 1.10,2013-04-08 19:00:00,
2013-04-08 15:15:00,74.9,52.0,30.00,SSW,196,2.0,5.0,45,0.00,,,0.00,weatherlink.com 1.10,2013-04-08 19:15:00,
2013-04-08 15:45:00,74.6,53.0,30.01,South,174,3.0,5.0,47,0.00,,,0.00,weatherlink.com 1.10,2013-04-08 19:45:00,
2013-04-08 16:00:00,74.6,54.0,30.00,South,175,2.0,6.0,48,0.00,,,0.00,weatherlink.com 1.10,2013-04-08 20:00:00,
2013-04-08 16:15:00,75.6,54.0,29.99,South,180,3.0,6.0,47,0.00,,,0.00,weatherlink.com 1.10,2013-04-08 20:15:00,
2013-04-08 16:30:00,74.5,54.0,29.99,SW,226,2.0,5.0,49,0.00,,,0.00,weatherlink.com 1.10,2013-04-08 20:30:00,
2013-04-08 16:45:00,74.2,53.0,29.98,South,171,1.0,4.0,47,0.00,,,0.00,weatherlink.com 1.10,2013-04-08 20:45:00,
2013-04-08 17:00:00,74.0,54.0,29.98,SE,128,0.0,5.0,50,0.00,,,0.00,weatherlink.com 1.10,2013-04-08 21:00:00,
2013-04-08 17:15:00,73.2,55.0,29.98,ESE,103,2.0,3.0,53,0.00,,,0.00,weatherlink.com 1.10,2013-04-08 21:15:00,
2013-04-08 17:30:00,72.2,55.0,29.97,ESE,102,2.0,5.0,55,0.00,,,0.00,weatherlink.com 1.10,2013-04-08 21:30:00,
2013-04-08 17:45:00,70.5,55.0,29.98,East,101,2.0,6.0,59,0.00,,,0.00,weatherlink.com 1.10,2013-04-08 21:45:00,
2013-04-08 18:00:00,69.2,55.0,29.98,East,101,2.0,5.0,62,0.00,,,0.00,weatherlink.com 1.10,2013-04-08 22:00:00,
2013-04-08 18:15:00,68.5,55.0,29.98,East,98,3.0,5.0,63,0.00,,,0.00,weatherlink.com 1.10,2013-04-08 22:15:00,
2013-04-08 18:30:00,68.3,55.0,29.98,ESE,102,5.0,6.0,62,0.00,,,0.00,weatherlink.com 1.10,2013-04-08 22:30:00,
2013-04-08 18:45:00,67.7,55.0,29.98,East,99,2.0,7.0,64,0.00,,,0.00,weatherlink.com 1.10,2013-04-08 22:45:00,
2013-04-08 19:00:00,67.1,55.0,29.98,East,101,3.0,5.0,66,0.00,,,0.00,weatherlink.com 1.10,2013-04-08 23:00:00,
2013-04-08 19:15:00,66.9,56.0,29.97,ESE,105,3.0,4.0,67,0.00,,,0.00,weatherlink.com 1.10,2013-04-08 23:15:00,
2013-04-08 19:45:00,65.7,55.0,29.97,ESE,109,0.0,5.0,69,0.00,,,0.00,weatherlink.com 1.10,2013-04-08 23:45:00,
2013-04-08 20:00:00,65.6,55.0,29.98,SE,142,0.0,2.0,69,0.00,,,0.00,weatherlink.com 1.10,2013-04-09 00:00:00,
2013-04-08 20:15:00,65.7,55.0,29.98,South,175,0.0,2.0,68,0.00,,,0.00,weatherlink.com 1.10,2013-04-09 00:15:00,
2013-04-08 20:30:00,65.6,55.0,29.99,SW,224,2.0,5.0,69,0.00,,,0.00,weatherlink.com 1.10,2013-04-09 00:30:00,
2013-04-08 20:45:00,65.3,55.0,29.99,South,175,0.0,1.0,69,0.00,,,0.00,weatherlink.com 1.10,2013-04-09 00:45:00,
2013-04-08 21:00:00,65.3,55.0,30.00,SSW,209,1.0,1.0,69,0.00,,,0.00,weatherlink.com 1.10,2013-04-09 01:00:00,
2013-04-08 21:15:00,65.3,54.0,29.99,SSW,209,1.0,3.0,67,0.00,,,0.00,weatherlink.com 1.10,2013-04-09 01:15:00,
2013-04-08 21:30:00,65.3,54.0,30.00,ESE,122,2.0,3.0,67,0.00,,,0.00,weatherlink.com 1.10,2013-04-09 01:30:00,
2013-04-08 21:45:00,65.0,54.0,30.00,South,188,0.0,5.0,67,0.00,,,0.00,weatherlink.com 1.10,2013-04-09 01:45:00,
2013-04-08 22:00:00,64.7,53.0,30.00,SSE,150,3.0,3.0,67,0.00,,,0.00,weatherlink.com 1.10,2013-04-09 02:00:00,
2013-04-08 22:15:00,64.1,54.0,30.00,South,180,1.0,3.0,69,0.00,,,0.00,weatherlink.com 1.10,2013-04-09 02:15:00,
2013-04-08 22:30:00,63.3,53.0,30.00,South,184,0.0,2.0,70,0.00,,,0.00,weatherlink.com 1.10,2013-04-09 02:30:00,
2013-04-08 22:45:00,62.4,53.0,29.99,SE,141,0.0,2.0,72,0.00,,,0.00,weatherlink.com 1.10,2013-04-09 02:45:00,
2013-04-08 23:00:00,61.9,53.0,30.00,South,178,0.0,3.0,73,0.00,,,0.00,weatherlink.com 1.10,2013-04-09 03:00:00,
2013-04-08 23:15:00,61.9,54.0,29.99,South,178,0.0,1.0,74,0.00,,,0.00,weatherlink.com 1.10,2013-04-09 03:15:00,
2013-04-08 23:30:00,62.2,53.0,29.99,SSW,192,0.0,2.0,73,0.00,,,0.00,weatherlink.com 1.10,2013-04-09 03:30:00,
2013-04-08 23:45:00,63.8,54.0,29.99,SE,141,1.0,5.0,70,0.00,,,0.00,weatherlink.com 1.10,2013-04-09 03:45:00,